Capitola, CA

5:50 PM PDT on August 04, 2015 (GMT -0700)
Capitola Mall/Live Oak | | Change Station
CLOSE
Current Station
Personal Weather Station
Location: Santa Cruz, CA
Elevation: 66 ft
Nearby Weather Stations

Elev 66 ft 36.97 °N, 121.97 °W | Updated 15 seconds ago

Partly Cloudy
Partly Cloudy
69.1 °F
Feels Like 69.1 °F
N
6.0
Wind Variable Wind from SSW
Gusts 16.0 mph

Today
High -- | Low -- °F
--% Chance of Precip.
Yesterday
High -- | Low -- °F
Precip. -- in
6:15 AM 8:11 PM
Waning Gibbous, 73% visible
Pressure 30.00 in
Visibility 10.0 miles
Clouds Clear
Dew Point 62 °F
Humidity 78%
Rainfall 0.00 in
Snow Depth Not available.
UV 1.7 out of 12
Pollen 4.90 out of 12
Air Quality Not available.
Flu Activity Not available.
METAR KWVI 042353Z AUTO 22009KT 10SM CLR 23/13 A3000 RMK AO2 SLPNO T02280128 10239 20200 58001

More Conditions Fewer Conditions

Pressure 30.00 in
Visibility 10.0 miles
Clouds Clear
Dew Point 62 °F
Humidity 78%
Rainfall 0.00 in
Snow Depth Not available.
UV 1.7 out of 12
Pollen 4.90 out of 12
Air Quality Not available.
Flu Activity Not available.
METAR KWVI 042353Z AUTO 22009KT 10SM CLR 23/13 A3000 RMK AO2 SLPNO T02280128 10239 20200 58001

More Conditions Fewer Conditions

10-Day Weather Forecast

×

Almanac

Astronomy

Aug. 04, 2015 Rise Set
Actual Time
Civil Twilight
Nautical Twilight
Astronomical Twilight
Moon
Length of Visible Light
Length of Day
Tomorrow will be .
, % of the Moon is Illuminated

Today's Extremes

State Highs State Lows

Community

WunderPhotos

Upload Photos

1,844,033 photos uploaded!

WunderBlogs® & News

Nearby

Air Quality

  Air Quality AQ Index Pollutant
Not available.

Snow Depth

Station Depth Elevation

Earthquake Activity

City Distance Mag. Time & Date
Minimum magnitude displayed is 2.5.

Coastal Water Temperatures

Place Temperature

Stations

Nearby Weather Stations

Station Location Temp. Windchill Dew Point Humidity Wind Precip. Elev Updated Type